Mansfield, Louisiana
Current Conditions -  °F | °C
As of 5:04 AM on Wednesday 22 Oct 2014 (Local Time) from KSHV Reporting Station
Haze Haze  
Wind Chill: 59°   Ceiling: Unl
Heat Index: 59°   Visibility: 3mi
Dew Point: 57°   Wind: 0mph
Humidity: 93%   Direction: NA
Pressure: 30.09"   Gusts: NA
Location:  32.04°N, 93.71°W
Report Text: KSHV 221004Z 00000KT 3SM BR CLR 15/14 A3009 RMK AO2 TWR VIS 10 T01500139
Loading
Personal Weather Stations






























Interactive Weather Map
Tropical Storm Tracking
New forecast layout! Learn more

10-Day Weather Forecast

Advertisements
Track Severe Weather on mobile